Time;durP1;ratioP1;P1;durP2;ratioP2;P2;SDS_P1;SDS_P2;PMS_P1;PMS_P2;Temp;Humidity;BMP_temperature;BMP_pressure;BME280_temperature;BME280_humidity;BME280_pressure;Samples;Min_cycle;Max_cycle;Signal;HPM_P1;HPM_P2
2024/01/05 00:01:00;;;;;;;;;;;2.80;99.90;;;;;;5048485;28;19962;-70
2024/01/05 00:03:25;;;;;;;;;;;2.70;99.90;;;;;;5051808;28;19924;-70
2024/01/05 00:05:51;;;;;;;;;;;2.70;99.90;;;;;;5053124;28;19927;-70
2024/01/05 00:08:16;;;;;;;;;;;2.70;99.90;;;;;;5062985;28;19927;-70
2024/01/05 00:10:42;;;;;;;;;;;2.90;99.90;;;;;;5046271;28;19928;-70
2024/01/05 00:13:07;;;;;;;;;;;2.70;99.90;;;;;;5032487;28;19932;-70
2024/01/05 00:15:33;;;;;;;;;;;2.70;99.90;;;;;;5067970;28;20479;-70
2024/01/05 00:17:58;;;;;;;;;;;3.30;99.90;;;;;;5043246;28;19924;-70
2024/01/05 00:20:24;;;;;;;;;;;2.70;99.90;;;;;;5038475;28;20008;-70
2024/01/05 00:22:49;;;;;;;;;;;2.70;99.90;;;;;;5059176;28;19928;-70
2024/01/05 00:25:16;;;;;;;;;;;2.70;99.90;;;;;;5051837;28;19955;-70
2024/01/05 00:27:42;;;;;;;;;;;2.70;99.90;;;;;;5048215;28;20198;-70
2024/01/05 00:30:08;;;;;;;;;;;2.90;99.90;;;;;;5048309;28;19920;-70
2024/01/05 00:32:33;;;;;;;;;;;2.70;99.90;;;;;;5048447;28;20503;-70
2024/01/05 00:34:59;;;;;;;;;;;2.70;99.90;;;;;;5044868;28;19916;-70
2024/01/05 00:37:24;;;;;;;;;;;2.70;99.90;;;;;;5068786;28;19963;-70
2024/01/05 00:39:50;;;;;;;;;;;2.70;99.90;;;;;;5050727;28;19916;-70
2024/01/05 00:42:15;;;;;;;;;;;2.80;99.90;;;;;;5053229;28;19931;-70
2024/01/05 00:44:41;;;;;;;;;;;2.60;99.90;;;;;;5051958;28;20049;-70
2024/01/05 00:47:06;;;;;;;;;;;2.60;99.90;;;;;;5069616;28;19920;-70
2024/01/05 00:49:32;;;;;;;;;;;2.60;99.90;;;;;;5052818;28;20346;-70
2024/01/05 00:51:58;;;;;;;;;;;2.60;99.90;;;;;;5067662;28;19924;-69
2024/01/05 00:54:25;;;;;;;;;;;2.60;99.90;;;;;;5069505;28;19967;-69
2024/01/05 00:56:50;;;;;;;;;;;2.60;99.90;;;;;;5069226;28;19935;-70
2024/01/05 00:59:19;;;;;;;;;;;3.00;99.90;;;;;;5042254;28;19921;-69
2024/01/05 01:01:45;;;;;;;;;;;2.60;99.90;;;;;;5044783;28;20003;-70
2024/01/05 01:04:11;;;;;;;;;;;2.60;99.90;;;;;;5041923;28;19920;-70
2024/01/05 01:06:36;;;;;;;;;;;2.60;99.90;;;;;;5046810;28;19921;-70
2024/01/05 01:09:02;;;;;;;;;;;2.60;99.90;;;;;;5042208;28;20141;-70
2024/01/05 01:11:28;;;;;;;;;;;2.50;99.90;;;;;;5038773;28;19925;-70
2024/01/05 01:13:53;;;;;;;;;;;2.60;99.90;;;;;;5047549;28;19928;-70
2024/01/05 01:16:19;;;;;;;;;;;2.60;99.90;;;;;;5050729;28;19926;-71
2024/01/05 01:18:44;;;;;;;;;;;2.50;99.90;;;;;;5043439;28;20376;-70
2024/01/05 01:21:10;;;;;;;;;;;2.80;99.90;;;;;;5054210;28;20291;-70
2024/01/05 01:23:35;;;;;;;;;;;2.50;99.90;;;;;;5052244;28;19962;-70
2024/01/05 01:26:01;;;;;;;;;;;2.50;99.90;;;;;;5046021;28;19924;-70
2024/01/05 01:28:27;;;;;;;;;;;2.50;99.90;;;;;;5049861;28;19934;-70
2024/01/05 01:30:53;;;;;;;;;;;2.50;99.90;;;;;;5044638;28;20015;-70
2024/01/05 01:33:19;;;;;;;;;;;2.50;99.90;;;;;;5051700;28;20023;-70
2024/01/05 01:35:44;;;;;;;;;;;3.50;99.90;;;;;;5050618;28;19920;-70
2024/01/05 01:38:10;;;;;;;;;;;2.50;99.90;;;;;;5039231;28;19920;-70
2024/01/05 01:40:36;;;;;;;;;;;2.50;99.90;;;;;;5041008;28;19924;-70
2024/01/05 01:43:03;;;;;;;;;;;2.50;99.90;;;;;;5049557;28;20007;-70
2024/01/05 01:45:29;;;;;;;;;;;2.50;99.90;;;;;;5054428;28;19935;-70
2024/01/05 01:47:55;;;;;;;;;;;2.50;99.90;;;;;;5041929;28;19981;-70
2024/01/05 01:50:24;;;;;;;;;;;2.40;99.90;;;;;;5050348;28;19925;-70
2024/01/05 01:52:50;;;;;;;;;;;2.50;99.90;;;;;;5068621;28;20325;-70
2024/01/05 01:55:16;;;;;;;;;;;2.40;99.90;;;;;;5050977;28;19920;-70
2024/01/05 01:57:42;;;;;;;;;;;2.40;99.90;;;;;;5049248;28;20395;-70
2024/01/05 02:00:09;;;;;;;;;;;2.40;99.90;;;;;;5062587;28;19931;-70
2024/01/05 02:02:34;;;;;;;;;;;2.40;99.90;;;;;;5048891;28;19927;-69
2024/01/05 02:05:00;;;;;;;;;;;2.40;99.90;;;;;;5047999;28;19920;-69
2024/01/05 02:07:25;;;;;;;;;;;2.60;99.90;;;;;;5031844;28;20058;-70
2024/01/05 02:09:51;;;;;;;;;;;2.40;99.90;;;;;;5030755;28;20261;-69
2024/01/05 02:12:17;;;;;;;;;;;2.40;99.90;;;;;;5042516;28;19990;-69
2024/01/05 02:14:42;;;;;;;;;;;2.50;99.90;;;;;;5038444;28;20026;-70
2024/01/05 02:17:27;;;;;;;;;;;2.40;99.90;;;;;;5066220;28;20772;-69
2024/01/05 02:19:52;;;;;;;;;;;2.40;99.90;;;;;;5041698;28;19982;-70
2024/01/05 02:22:18;;;;;;;;;;;2.40;99.90;;;;;;5036430;28;20018;-69
2024/01/05 02:24:44;;;;;;;;;;;2.40;99.90;;;;;;5030672;28;20379;-69
2024/01/05 02:27:10;;;;;;;;;;;2.40;99.90;;;;;;5051367;28;19923;-69
2024/01/05 02:29:36;;;;;;;;;;;2.40;99.90;;;;;;5057056;28;20291;-70
2024/01/05 02:32:02;;;;;;;;;;;2.40;99.90;;;;;;5052062;28;19943;-69
2024/01/05 02:34:27;;;;;;;;;;;2.40;99.90;;;;;;5056584;28;20010;-69
2024/01/05 02:36:53;;;;;;;;;;;2.40;99.90;;;;;;5057368;28;20354;-69
2024/01/05 02:39:18;;;;;;;;;;;2.80;99.90;;;;;;5057348;28;20363;-69
2024/01/05 02:41:44;;;;;;;;;;;3.60;99.90;;;;;;5057105;28;20394;-69
2024/01/05 02:44:09;;;;;;;;;;;2.80;99.90;;;;;;5066927;28;19974;-69
2024/01/05 02:46:37;;;;;;;;;;;2.40;99.90;;;;;;5044311;28;20015;-69
2024/01/05 02:49:03;;;;;;;;;;;2.40;99.90;;;;;;5055778;28;20375;-69
2024/01/05 02:51:28;;;;;;;;;;;2.40;99.90;;;;;;5075517;28;19920;-70
2024/01/05 02:53:54;;;;;;;;;;;2.40;99.90;;;;;;5056830;28;19926;-69
2024/01/05 02:56:20;;;;;;;;;;;2.80;99.90;;;;;;5074956;28;19942;-69
2024/01/05 02:58:46;;;;;;;;;;;2.40;99.90;;;;;;5051332;28;19925;-69
2024/01/05 03:01:16;;;;;;;;;;;2.40;99.90;;;;;;5045115;28;19974;-69
2024/01/05 03:03:43;;;;;;;;;;;2.40;99.90;;;;;;5055053;28;20014;-69
2024/01/05 03:06:08;;;;;;;;;;;2.40;99.90;;;;;;5043350;28;19925;-69
2024/01/05 03:08:34;;;;;;;;;;;2.40;99.90;;;;;;5072982;28;19973;-69
2024/01/05 03:10:59;;;;;;;;;;;2.40;99.90;;;;;;5057311;28;19920;-69
2024/01/05 03:13:25;;;;;;;;;;;2.70;99.90;;;;;;5074315;28;19925;-69
2024/01/05 03:15:51;;;;;;;;;;;4.10;99.90;;;;;;5056334;28;19942;-69
2024/01/05 03:18:17;;;;;;;;;;;2.40;99.90;;;;;;5057807;28;19970;-69
2024/01/05 03:20:43;;;;;;;;;;;2.40;99.90;;;;;;5057278;28;19920;-69
2024/01/05 03:23:08;;;;;;;;;;;2.30;99.90;;;;;;5056327;28;19978;-69
2024/01/05 03:25:34;;;;;;;;;;;2.30;99.90;;;;;;5054299;28;20360;-69
2024/01/05 03:27:59;;;;;;;;;;;2.40;99.90;;;;;;5035437;28;20269;-70
2024/01/05 03:30:25;;;;;;;;;;;2.30;99.90;;;;;;5055233;28;20355;-69
2024/01/05 03:32:50;;;;;;;;;;;2.40;99.90;;;;;;5043805;28;20356;-69
2024/01/05 03:35:16;;;;;;;;;;;2.30;99.90;;;;;;5038447;28;20402;-69
2024/01/05 03:37:41;;;;;;;;;;;2.40;99.90;;;;;;5053622;28;20365;-69
2024/01/05 03:40:07;;;;;;;;;;;2.30;99.90;;;;;;5038844;28;19924;-69
2024/01/05 03:42:33;;;;;;;;;;;2.30;99.90;;;;;;5050878;28;19921;-69
2024/01/05 03:44:58;;;;;;;;;;;2.30;99.90;;;;;;5052825;28;19924;-69
2024/01/05 03:47:24;;;;;;;;;;;2.30;99.90;;;;;;5064156;28;19920;-69
2024/01/05 03:49:50;;;;;;;;;;;2.30;99.90;;;;;;5033225;28;19921;-69
2024/01/05 03:52:15;;;;;;;;;;;2.30;99.90;;;;;;5055088;28;19928;-69
2024/01/05 03:54:41;;;;;;;;;;;2.30;99.90;;;;;;5072174;28;20394;-69
2024/01/05 03:57:06;;;;;;;;;;;2.30;99.90;;;;;;5061883;28;20430;-69
2024/01/05 03:59:32;;;;;;;;;;;2.30;99.90;;;;;;5033152;28;19928;-69
2024/01/05 04:01:57;;;;;;;;;;;2.30;99.90;;;;;;5038238;28;19916;-69
2024/01/05 04:04:23;;;;;;;;;;;2.30;99.90;;;;;;5052637;28;20014;-69
2024/01/05 04:06:50;;;;;;;;;;;2.30;99.90;;;;;;5067106;28;19929;-69
2024/01/05 04:09:16;;;;;;;;;;;2.30;99.90;;;;;;5052138;28;19920;-69
2024/01/05 04:11:42;;;;;;;;;;;2.20;99.90;;;;;;5053443;28;20303;-69
2024/01/05 04:14:07;;;;;;;;;;;3.90;99.90;;;;;;5047167;28;19925;-69
2024/01/05 04:16:33;;;;;;;;;;;2.30;99.90;;;;;;5048790;28;19978;-69
2024/01/05 04:18:59;;;;;;;;;;;2.20;99.90;;;;;;5049844;28;19993;-69
2024/01/05 04:21:24;;;;;;;;;;;2.20;99.90;;;;;;5048429;28;20395;-69
2024/01/05 04:23:51;;;;;;;;;;;2.20;99.90;;;;;;5048230;28;19967;-69
2024/01/05 04:26:17;;;;;;;;;;;2.30;99.90;;;;;;5046820;28;19921;-69
2024/01/05 04:28:43;;;;;;;;;;;2.30;99.90;;;;;;5031919;28;19927;-69
2024/01/05 04:31:08;;;;;;;;;;;2.30;99.90;;;;;;5030369;28;19925;-69
2024/01/05 04:33:34;;;;;;;;;;;2.20;99.90;;;;;;5043385;28;19970;-69
2024/01/05 04:36:00;;;;;;;;;;;2.30;99.90;;;;;;5048932;28;19947;-69
2024/01/05 04:38:25;;;;;;;;;;;2.20;99.90;;;;;;5034947;28;19921;-69
2024/01/05 04:40:51;;;;;;;;;;;2.30;99.90;;;;;;5039940;28;19974;-69
2024/01/05 04:43:16;;;;;;;;;;;2.30;99.90;;;;;;5048567;28;19972;-69
2024/01/05 04:45:42;;;;;;;;;;;2.30;99.90;;;;;;5045560;28;19927;-69
2024/01/05 04:48:08;;;;;;;;;;;2.30;99.90;;;;;;5032058;28;20032;-68
2024/01/05 04:50:33;;;;;;;;;;;2.30;99.90;;;;;;5042594;28;19924;-69
2024/01/05 04:52:59;;;;;;;;;;;2.40;99.90;;;;;;5047682;28;20011;-69
2024/01/05 04:55:25;;;;;;;;;;;2.50;99.90;;;;;;5047557;28;19921;-68
2024/01/05 04:57:50;;;;;;;;;;;2.30;99.90;;;;;;5048337;28;19931;-69
2024/01/05 05:00:16;;;;;;;;;;;2.30;99.90;;;;;;5047923;28;19940;-68
2024/01/05 05:02:41;;;;;;;;;;;2.30;99.90;;;;;;5044905;28;19963;-68
2024/01/05 05:05:08;;;;;;;;;;;2.30;99.90;;;;;;5044562;28;19925;-68
2024/01/05 05:07:33;;;;;;;;;;;2.30;99.90;;;;;;5029156;28;19920;-69
2024/01/05 05:09:59;;;;;;;;;;;2.30;99.90;;;;;;5028514;28;19928;-69
2024/01/05 05:12:24;;;;;;;;;;;2.30;99.90;;;;;;5038572;28;19921;-69
2024/01/05 05:14:50;;;;;;;;;;;2.30;99.90;;;;;;5045996;28;19928;-69
2024/01/05 05:17:15;;;;;;;;;;;2.80;99.90;;;;;;5048051;28;20003;-68
2024/01/05 05:19:41;;;;;;;;;;;2.70;99.90;;;;;;5034823;28;19928;-69
2024/01/05 05:22:06;;;;;;;;;;;2.70;99.90;;;;;;5044768;28;19921;-68
2024/01/05 05:24:32;;;;;;;;;;;2.40;99.90;;;;;;5044986;28;19999;-69
2024/01/05 05:26:58;;;;;;;;;;;2.40;99.90;;;;;;5042552;28;19921;-69
2024/01/05 05:29:23;;;;;;;;;;;2.30;99.90;;;;;;5047911;28;19932;-70
2024/01/05 05:31:49;;;;;;;;;;;2.30;99.90;;;;;;5042003;28;19940;-69
2024/01/05 05:34:14;;;;;;;;;;;2.40;99.90;;;;;;5041093;28;19975;-68
2024/01/05 05:36:40;;;;;;;;;;;2.30;99.90;;;;;;5030303;28;19922;-69
2024/01/05 05:39:05;;;;;;;;;;;2.40;99.90;;;;;;5028254;28;19927;-69
2024/01/05 05:41:31;;;;;;;;;;;2.40;99.90;;;;;;5044324;28;20007;-69
2024/01/05 05:43:56;;;;;;;;;;;2.40;99.90;;;;;;5047297;28;19982;-69
2024/01/05 05:46:22;;;;;;;;;;;2.40;99.90;;;;;;5041124;28;19925;-69
2024/01/05 05:48:47;;;;;;;;;;;2.60;99.90;;;;;;5031437;28;19931;-69
2024/01/05 05:51:13;;;;;;;;;;;2.40;99.90;;;;;;5036254;28;19935;-69
2024/01/05 05:53:39;;;;;;;;;;;2.60;99.90;;;;;;5036197;28;20007;-69
2024/01/05 05:56:04;;;;;;;;;;;2.80;99.90;;;;;;5032215;28;19935;-69
2024/01/05 05:58:30;;;;;;;;;;;2.40;99.90;;;;;;5039776;28;19921;-69
2024/01/05 06:00:55;;;;;;;;;;;2.50;99.90;;;;;;5039840;28;20010;-69
2024/01/05 06:03:22;;;;;;;;;;;2.40;99.90;;;;;;5047205;28;20003;-69
2024/01/05 06:05:48;;;;;;;;;;;2.40;99.90;;;;;;5040107;28;20292;-69
2024/01/05 06:08:14;;;;;;;;;;;2.40;99.90;;;;;;5048214;28;19920;-69
2024/01/05 06:10:39;;;;;;;;;;;2.50;99.90;;;;;;5047065;28;20363;-69
2024/01/05 06:13:05;;;;;;;;;;;2.40;99.90;;;;;;5047394;28;20292;-70
2024/01/05 06:15:31;;;;;;;;;;;2.50;99.90;;;;;;5050019;28;19928;-69
2024/01/05 06:17:57;;;;;;;;;;;2.50;99.90;;;;;;5050149;28;19920;-69
2024/01/05 06:20:22;;;;;;;;;;;2.50;99.90;;;;;;5051646;28;20403;-69
2024/01/05 06:22:48;;;;;;;;;;;2.50;99.90;;;;;;5049681;28;19920;-69
2024/01/05 06:25:14;;;;;;;;;;;2.50;99.90;;;;;;5042732;28;19928;-69
2024/01/05 06:27:40;;;;;;;;;;;2.50;99.90;;;;;;5045414;28;19920;-69
2024/01/05 06:30:06;;;;;;;;;;;2.50;99.90;;;;;;5031700;28;19923;-69
2024/01/05 06:32:31;;;;;;;;;;;2.50;99.90;;;;;;5049784;28;20050;-69
2024/01/05 06:34:57;;;;;;;;;;;2.50;99.90;;;;;;5042253;28;20002;-69
2024/01/05 06:37:23;;;;;;;;;;;2.50;99.90;;;;;;5036299;28;19924;-69
2024/01/05 06:39:48;;;;;;;;;;;2.60;99.90;;;;;;5049809;28;20372;-69
2024/01/05 06:42:14;;;;;;;;;;;2.60;99.90;;;;;;5068596;28;19917;-69
2024/01/05 06:44:39;;;;;;;;;;;2.60;99.90;;;;;;5049151;28;19973;-69
2024/01/05 06:47:05;;;;;;;;;;;2.70;99.90;;;;;;5044217;28;19928;-69
2024/01/05 06:49:30;;;;;;;;;;;2.60;99.90;;;;;;5038597;28;19916;-69
2024/01/05 06:51:56;;;;;;;;;;;2.60;99.90;;;;;;5049930;28;20148;-70
2024/01/05 06:54:21;;;;;;;;;;;2.60;99.90;;;;;;5050483;28;19920;-69
2024/01/05 06:56:48;;;;;;;;;;;2.60;99.90;;;;;;5050455;28;19916;-70
2024/01/05 06:59:13;;;;;;;;;;;2.70;99.90;;;;;;5032498;28;19932;-69
2024/01/05 07:01:39;;;;;;;;;;;2.70;99.90;;;;;;5063095;28;19916;-69
2024/01/05 07:04:07;;;;;;;;;;;3.00;99.90;;;;;;5045080;28;19925;-69
2024/01/05 07:06:33;;;;;;;;;;;2.90;99.90;;;;;;5040395;28;20383;-69
2024/01/05 07:08:59;;;;;;;;;;;2.70;99.90;;;;;;5048953;28;19986;-69
2024/01/05 07:11:24;;;;;;;;;;;3.10;99.90;;;;;;5050985;28;20261;-69
2024/01/05 07:13:50;;;;;;;;;;;2.70;99.90;;;;;;5050446;28;20279;-69
2024/01/05 07:16:19;;;;;;;;;;;2.70;99.90;;;;;;5053728;28;19990;-69
2024/01/05 07:18:46;;;;;;;;;;;2.70;99.90;;;;;;5054900;28;19921;-68
2024/01/05 07:21:12;;;;;;;;;;;2.70;99.90;;;;;;5053685;28;19916;-69
2024/01/05 07:23:37;;;;;;;;;;;2.80;99.90;;;;;;5054631;28;19920;-69
2024/01/05 07:26:03;;;;;;;;;;;2.80;99.90;;;;;;5053173;28;19928;-69
2024/01/05 07:28:28;;;;;;;;;;;2.80;99.90;;;;;;5071885;28;19931;-69
2024/01/05 07:30:54;;;;;;;;;;;2.80;99.90;;;;;;5045804;28;19973;-69
2024/01/05 07:33:19;;;;;;;;;;;2.80;99.90;;;;;;5054041;28;19956;-69
2024/01/05 07:35:45;;;;;;;;;;;2.80;99.90;;;;;;5051681;28;20276;-69
2024/01/05 07:38:10;;;;;;;;;;;3.10;99.90;;;;;;5037614;28;20002;-69
2024/01/05 07:40:36;;;;;;;;;;;2.90;99.90;;;;;;5046856;28;19928;-69
2024/01/05 07:43:01;;;;;;;;;;;2.80;99.90;;;;;;5052487;28;19932;-69
2024/01/05 07:45:28;;;;;;;;;;;1.50;99.90;;;;;;5051970;28;20046;-69
2024/01/05 07:47:57;;;;;;;;;;;3.40;99.90;;;;;;5048455;28;19989;-69
2024/01/05 07:50:23;;;;;;;;;;;2.90;99.90;;;;;;5035394;28;19977;-69
2024/01/05 07:52:48;;;;;;;;;;;2.90;99.90;;;;;;5052965;28;20007;-68
2024/01/05 07:55:14;;;;;;;;;;;3.10;99.90;;;;;;5053179;28;19925;-68
2024/01/05 07:57:40;;;;;;;;;;;3.00;99.90;;;;;;5052291;28;19924;-69
2024/01/05 08:00:06;;;;;;;;;;;2.90;99.90;;;;;;5040752;28;20291;-69
2024/01/05 08:02:32;;;;;;;;;;;2.90;99.90;;;;;;5045965;28;19920;-69
2024/01/05 08:04:58;;;;;;;;;;;3.00;99.90;;;;;;5068395;28;19951;-68
2024/01/05 08:07:23;;;;;;;;;;;3.00;99.90;;;;;;5070134;28;19932;-69
2024/01/05 08:09:52;;;;;;;;;;;3.00;99.90;;;;;;5053034;28;19924;-68
2024/01/05 08:12:19;;;;;;;;;;;4.20;99.90;;;;;;5052950;28;20318;-69
2024/01/05 08:14:45;;;;;;;;;;;3.00;99.90;;;;;;5050015;28;20398;-70
2024/01/05 08:17:12;;;;;;;;;;;3.10;99.90;;;;;;5051740;28;19920;-69
2024/01/05 08:19:37;;;;;;;;;;;3.00;99.90;;;;;;5053516;28;19921;-70
2024/01/05 08:22:03;;;;;;;;;;;3.00;99.90;;;;;;5050407;28;19963;-70
2024/01/05 08:24:28;;;;;;;;;;;3.10;99.90;;;;;;5049995;28;19928;-69
2024/01/05 08:26:54;;;;;;;;;;;3.00;99.90;;;;;;5050687;28;19955;-70
2024/01/05 08:29:21;;;;;;;;;;;3.10;99.90;;;;;;5046206;28;19921;-70
2024/01/05 08:31:48;;;;;;;;;;;3.10;99.90;;;;;;5033693;28;20315;-70
2024/01/05 08:34:13;;;;;;;;;;;3.10;99.90;;;;;;5052598;28;20371;-69
2024/01/05 08:36:39;;;;;;;;;;;3.10;99.90;;;;;;5067149;28;19920;-69
2024/01/05 08:39:05;;;;;;;;;;;3.10;99.90;;;;;;5046206;28;19932;-69
2024/01/05 08:41:31;;;;;;;;;;;3.10;99.90;;;;;;5033350;28;19946;-69
2024/01/05 08:43:57;;;;;;;;;;;3.10;99.90;;;;;;5047172;28;19928;-70
2024/01/05 08:46:23;;;;;;;;;;;3.10;99.90;;;;;;5051995;28;19994;-70
2024/01/05 08:48:49;;;;;;;;;;;3.10;99.90;;;;;;5039215;28;20318;-69
2024/01/05 08:51:14;;;;;;;;;;;3.20;99.90;;;;;;5052660;28;19921;-69
2024/01/05 08:53:42;;;;;;;;;;;3.30;99.90;;;;;;5051371;28;19946;-69
2024/01/05 08:56:08;;;;;;;;;;;3.20;99.90;;;;;;5072939;28;20403;-69
2024/01/05 08:58:34;;;;;;;;;;;3.20;99.90;;;;;;5065470;28;19924;-69
2024/01/05 09:01:00;;;;;;;;;;;3.20;99.90;;;;;;5049205;28;20307;-69
2024/01/05 09:03:25;;;;;;;;;;;3.30;99.90;;;;;;5052821;28;20287;-69
2024/01/05 09:05:51;;;;;;;;;;;3.20;99.90;;;;;;5048774;28;19920;-70
2024/01/05 09:08:18;;;;;;;;;;;3.20;99.90;;;;;;5043137;28;19963;-70
2024/01/05 09:10:43;;;;;;;;;;;3.20;99.90;;;;;;5068541;28;19921;-72
2024/01/05 09:13:09;;;;;;;;;;;3.30;99.90;;;;;;5066671;28;19921;-70
2024/01/05 09:15:35;;;;;;;;;;;3.30;99.90;;;;;;5043574;28;19925;-70
2024/01/05 09:18:01;;;;;;;;;;;3.30;99.90;;;;;;5044262;28;19943;-70
2024/01/05 09:20:26;;;;;;;;;;;3.30;99.90;;;;;;5050974;28;19979;-69
2024/01/05 09:22:52;;;;;;;;;;;3.70;99.90;;;;;;5048524;28;19928;-70
2024/01/05 09:25:17;;;;;;;;;;;3.30;99.90;;;;;;5070242;28;19927;-69
2024/01/05 09:27:43;;;;;;;;;;;3.30;99.90;;;;;;5044097;28;20019;-69
2024/01/05 09:30:08;;;;;;;;;;;3.30;99.90;;;;;;5069514;28;19970;-70
2024/01/05 09:32:34;;;;;;;;;;;3.40;99.90;;;;;;5051314;28;19920;-69
2024/01/05 09:34:59;;;;;;;;;;;3.40;99.90;;;;;;5069433;28;19916;-69
2024/01/05 09:37:25;;;;;;;;;;;3.70;99.90;;;;;;5034422;28;20003;-70
2024/01/05 09:39:52;;;;;;;;;;;3.40;99.90;;;;;;5036482;28;20010;-70
2024/01/05 09:42:18;;;;;;;;;;;3.80;99.90;;;;;;5047487;28;20380;-69
2024/01/05 09:44:46;;;;;;;;;;;3.50;99.90;;;;;;5046379;28;20069;-69
2024/01/05 09:47:13;;;;;;;;;;;3.50;99.90;;;;;;5045646;28;19928;-70
2024/01/05 09:49:44;;;;;;;;;;;3.50;99.90;;;;;;5050354;28;20486;-70
2024/01/05 09:52:12;;;;;;;;;;;3.90;99.90;;;;;;5051304;28;19998;-71
2024/01/05 09:54:37;;;;;;;;;;;4.30;99.90;;;;;;5051256;28;19920;-70
2024/01/05 09:57:03;;;;;;;;;;;3.50;99.90;;;;;;5049471;28;19935;-71
2024/01/05 09:59:29;;;;;;;;;;;3.60;99.90;;;;;;5050926;28;20318;-71
2024/01/05 10:01:55;;;;;;;;;;;4.20;99.90;;;;;;5049751;28;20414;-72
2024/01/05 10:04:20;;;;;;;;;;;3.60;99.90;;;;;;5050309;28;19920;-72
2024/01/05 10:06:46;;;;;;;;;;;3.60;99.90;;;;;;5047848;28;19924;-72
2024/01/05 10:09:11;;;;;;;;;;;3.60;99.90;;;;;;5047770;28;20375;-71
2024/01/05 10:11:42;;;;;;;;;;;3.70;99.90;;;;;;5050977;28;20360;-72
2024/01/05 10:14:11;;;;;;;;;;;3.70;99.90;;;;;;5049928;28;19947;-72
2024/01/05 10:16:37;;;;;;;;;;;3.70;99.90;;;;;;5047839;28;19967;-71
2024/01/05 10:19:13;;;;;;;;;;;3.70;99.90;;;;;;5066175;28;19921;-72
2024/01/05 10:21:39;;;;;;;;;;;3.70;99.90;;;;;;5049939;28;20012;-72
2024/01/05 10:24:12;;;;;;;;;;;3.70;99.90;;;;;;5047717;28;20391;-72
2024/01/05 10:26:38;;;;;;;;;;;3.80;99.90;;;;;;5044325;28;19948;-72
2024/01/05 10:29:14;;;;;;;;;;;4.20;99.90;;;;;;5045565;28;19971;-72
2024/01/05 10:31:40;;;;;;;;;;;3.80;99.90;;;;;;5049587;28;19928;-72
2024/01/05 10:34:06;;;;;;;;;;;3.90;99.90;;;;;;5048931;28;20400;-72
2024/01/05 10:36:32;;;;;;;;;;;5.00;99.90;;;;;;5049299;28;19920;-72
2024/01/05 10:38:58;;;;;;;;;;;3.90;99.90;;;;;;5047868;28;20330;-72
2024/01/05 10:41:23;;;;;;;;;;;3.90;99.90;;;;;;5046023;28;20380;-72
2024/01/05 10:43:49;;;;;;;;;;;4.00;99.90;;;;;;5048241;28;19920;-72
2024/01/05 10:46:18;;;;;;;;;;;4.00;99.90;;;;;;5050588;28;19927;-72
2024/01/05 10:48:44;;;;;;;;;;;4.00;99.90;;;;;;5054071;28;19924;-73
2024/01/05 10:51:15;;;;;;;;;;;4.00;99.90;;;;;;5072139;28;19943;-72
2024/01/05 10:53:42;;;;;;;;;;;4.10;99.90;;;;;;5072937;28;20319;-72
2024/01/05 10:56:08;;;;;;;;;;;4.10;99.90;;;;;;5053554;28;19920;-72
2024/01/05 10:58:34;;;;;;;;;;;4.30;99.90;;;;;;5051569;28;19952;-73
2024/01/05 11:01:00;;;;;;;;;;;5.50;99.90;;;;;;5051156;28;19994;-72
2024/01/05 11:03:31;;;;;;;;;;;4.10;99.90;;;;;;5054589;28;19924;-72
2024/01/05 11:05:57;;;;;;;;;;;4.50;99.90;;;;;;5052783;28;19927;-72
2024/01/05 11:08:31;;;;;;;;;;;4.20;99.90;;;;;;5053370;28;20003;-74
2024/01/05 11:11:07;;;;;;;;;;;4.20;99.90;;;;;;5046434;28;19916;-72
2024/01/05 11:13:36;;;;;;;;;;;4.30;99.90;;;;;;5048842;28;19921;-71
2024/01/05 11:16:02;;;;;;;;;;;4.30;99.90;;;;;;5048409;28;19943;-71
2024/01/05 11:18:42;;;;;;;;;;;4.60;99.90;;;;;;5051142;28;19921;-71
2024/01/05 11:21:19;;;;;;;;;;;4.30;99.90;;;;;;5050368;28;19925;-71
2024/01/05 11:23:45;;;;;;;;;;;4.30;99.90;;;;;;5051020;28;19921;-71
2024/01/05 11:26:30;;;;;;;;;;;4.40;99.90;;;;;;5044384;28;19968;-71
2024/01/05 11:28:56;;;;;;;;;;;4.40;99.90;;;;;;5049018;28;20006;-71
2024/01/05 11:31:40;;;;;;;;;;;4.40;99.90;;;;;;5047641;28;19921;-71
2024/01/05 11:34:05;;;;;;;;;;;4.40;99.90;;;;;;5049899;28;19931;-71
2024/01/05 11:36:49;;;;;;;;;;;4.40;99.90;;;;;;5051791;28;20392;-71
2024/01/05 11:39:34;;;;;;;;;;;4.40;99.90;;;;;;5033391;28;20390;-71
2024/01/05 11:41:59;;;;;;;;;;;4.40;99.90;;;;;;5036888;28;20082;-71
2024/01/05 11:44:34;;;;;;;;;;;4.50;99.90;;;;;;5048171;28;20019;-71
2024/01/05 11:47:03;;;;;;;;;;;4.50;99.90;;;;;;5049314;28;20015;-71
2024/01/05 11:49:34;;;;;;;;;;;4.50;99.90;;;;;;5048974;28;19924;-71
2024/01/05 11:52:01;;;;;;;;;;;4.50;99.90;;;;;;5050273;28;19927;-71
2024/01/05 11:54:26;;;;;;;;;;;4.60;99.90;;;;;;5048763;28;19963;-74
2024/01/05 11:56:59;;;;;;;;;;;4.50;99.90;;;;;;5038937;28;19953;-72
2024/01/05 11:59:25;;;;;;;;;;;4.50;99.90;;;;;;5049002;28;19952;-71
2024/01/05 12:01:51;;;;;;;;;;;4.50;99.90;;;;;;5048546;28;19921;-71
2024/01/05 12:04:17;;;;;;;;;;;4.50;99.90;;;;;;5045825;28;19925;-72
2024/01/05 12:06:50;;;;;;;;;;;4.80;99.90;;;;;;5039985;28;20027;-71
2024/01/05 12:09:18;;;;;;;;;;;4.50;99.90;;;;;;5029724;28;19921;-72
2024/01/05 12:11:44;;;;;;;;;;;4.50;99.90;;;;;;5047446;28;19924;-71
2024/01/05 12:14:10;;;;;;;;;;;5.00;99.90;;;;;;5045985;28;19921;-71
2024/01/05 12:16:35;;;;;;;;;;;4.50;99.90;;;;;;5045502;28;20418;-71
2024/01/05 12:19:01;;;;;;;;;;;4.50;99.90;;;;;;5030390;28;20002;-71
2024/01/05 12:21:27;;;;;;;;;;;4.60;99.90;;;;;;5057617;28;20364;-72
2024/01/05 12:23:54;;;;;;;;;;;4.60;99.90;;;;;;5034427;28;19925;-71
2024/01/05 12:26:19;;;;;;;;;;;4.60;99.90;;;;;;5034987;28;20288;-73
2024/01/05 12:28:46;;;;;;;;;;;4.60;99.90;;;;;;5043160;28;19921;-73
2024/01/05 12:31:11;;;;;;;;;;;4.60;99.90;;;;;;5048829;28;19920;-72
2024/01/05 12:33:38;;;;;;;;;;;4.60;99.90;;;;;;5050158;28;19927;-72
2024/01/05 12:36:12;;;;;;;;;;;4.90;99.90;;;;;;5041565;28;19972;-71
2024/01/05 12:38:38;;;;;;;;;;;4.60;99.90;;;;;;5036746;28;19928;-72
2024/01/05 12:41:04;;;;;;;;;;;4.60;99.90;;;;;;5042061;28;20539;-71
2024/01/05 12:43:29;;;;;;;;;;;4.70;99.90;;;;;;5042873;28;20015;-71
2024/01/05 12:45:55;;;;;;;;;;;4.70;99.90;;;;;;5051320;28;19920;-71
2024/01/05 12:48:25;;;;;;;;;;;4.70;99.90;;;;;;5050279;28;19975;-71
2024/01/05 12:51:01;;;;;;;;;;;4.70;99.90;;;;;;5047547;28;20333;-71
2024/01/05 12:53:27;;;;;;;;;;;4.70;99.90;;;;;;5055908;28;20288;-72
2024/01/05 12:55:53;;;;;;;;;;;4.80;99.90;;;;;;5045139;28;19925;-77
2024/01/05 12:58:18;;;;;;;;;;;4.70;99.90;;;;;;5046199;28;19921;-72
2024/01/05 13:00:44;;;;;;;;;;;4.70;99.90;;;;;;5049247;28;20427;-72
2024/01/05 13:03:16;;;;;;;;;;;4.70;99.90;;;;;;5048792;28;19952;-71
2024/01/05 13:05:42;;;;;;;;;;;4.70;99.90;;;;;;5047950;28;19921;-71
2024/01/05 13:08:09;;;;;;;;;;;4.70;99.90;;;;;;5049115;28;19924;-73
2024/01/05 13:10:34;;;;;;;;;;;4.80;99.90;;;;;;5043519;28;19966;-72
2024/01/05 13:13:00;;;;;;;;;;;4.70;99.90;;;;;;5038887;28;20276;-72
2024/01/05 13:15:25;;;;;;;;;;;4.70;99.90;;;;;;5041616;28;19927;-72
2024/01/05 13:17:51;;;;;;;;;;;4.70;99.90;;;;;;5041513;28;20454;-72
2024/01/05 13:20:19;;;;;;;;;;;4.70;99.90;;;;;;5042405;28;19920;-72
2024/01/05 13:22:44;;;;;;;;;;;5.60;99.90;;;;;;5040411;28;19936;-72
2024/01/05 13:25:12;;;;;;;;;;;4.70;99.90;;;;;;5046364;28;19920;-72
2024/01/05 13:27:38;;;;;;;;;;;4.70;99.90;;;;;;5029139;28;19921;-72
2024/01/05 13:30:05;;;;;;;;;;;4.70;99.90;;;;;;5042332;28;19929;-72
2024/01/05 13:32:32;;;;;;;;;;;4.70;99.90;;;;;;5047828;28;20051;-71
2024/01/05 13:34:57;;;;;;;;;;;4.80;99.90;;;;;;5048666;28;19921;-72
2024/01/05 13:37:24;;;;;;;;;;;4.80;99.90;;;;;;5049921;28;19920;-72
2024/01/05 13:39:50;;;;;;;;;;;4.70;99.90;;;;;;5046290;28;20002;-73
2024/01/05 13:42:15;;;;;;;;;;;4.70;99.90;;;;;;5040294;28;19987;-72
2024/01/05 13:44:41;;;;;;;;;;;4.80;99.90;;;;;;5034955;28;19921;-72
2024/01/05 13:47:06;;;;;;;;;;;4.80;99.90;;;;;;5038904;28;20363;-72
2024/01/05 13:49:32;;;;;;;;;;;4.80;99.90;;;;;;5042297;28;19931;-72
2024/01/05 13:51:58;;;;;;;;;;;4.80;99.90;;;;;;5026889;28;19921;-72
2024/01/05 13:54:23;;;;;;;;;;;4.80;99.90;;;;;;5031784;28;19936;-71
2024/01/05 13:56:49;;;;;;;;;;;4.80;99.90;;;;;;5046598;28;19921;-73
2024/01/05 13:59:14;;;;;;;;;;;4.90;99.90;;;;;;5043747;28;19921;-72
2024/01/05 14:01:43;;;;;;;;;;;4.80;99.90;;;;;;5047696;28;19920;-72
2024/01/05 14:04:08;;;;;;;;;;;4.80;99.90;;;;;;5047551;28;19986;-71
2024/01/05 14:06:34;;;;;;;;;;;4.90;99.90;;;;;;5048997;28;19920;-72
2024/01/05 14:09:01;;;;;;;;;;;5.50;99.90;;;;;;5047130;28;19978;-72
2024/01/05 14:11:26;;;;;;;;;;;5.10;99.90;;;;;;5048176;28;19920;-72
2024/01/05 14:13:52;;;;;;;;;;;5.40;99.90;;;;;;5046710;28;20433;-72
2024/01/05 14:16:17;;;;;;;;;;;5.00;99.90;;;;;;5051305;28;20356;-72
2024/01/05 14:18:43;;;;;;;;;;;4.90;99.90;;;;;;5051087;28;20385;-72
2024/01/05 14:21:09;;;;;;;;;;;5.40;99.90;;;;;;5050691;28;20308;-72
2024/01/05 14:23:37;;;;;;;;;;;6.20;99.90;;;;;;5050484;28;20008;-72
2024/01/05 14:26:07;;;;;;;;;;;4.80;99.90;;;;;;5045250;28;19999;-72